Time;durP1;ratioP1;P1;durP2;ratioP2;P2;SDS_P1;SDS_P2;PMS_P1;PMS_P2;Temp;Humidity;BMP_temperature;BMP_pressure;BME280_temperature;BME280_humidity;BME280_pressure;Samples;Min_cycle;Max_cycle;Signal;HPM_P1;HPM_P2
2022/09/05 00:01:35;;;;;;;10.63;9.52;;;;;;;;;;4974042;28;20118;-75
2022/09/05 00:04:07;;;;;;;10.90;9.45;;;;;;;;;;4975491;28;20023;-73
2022/09/05 00:06:36;;;;;;;12.57;9.80;;;;;;;;;;4977925;28;20488;-75
2022/09/05 00:09:20;;;;;;;14.02;9.32;;;;;;;;;;4974689;28;20023;-74
2022/09/05 00:11:53;;;;;;;13.98;9.05;;;;;;;;;;4975042;28;20023;-73
2022/09/05 00:14:37;;;;;;;11.50;9.13;;;;;;;;;;4984731;28;20057;-75
2022/09/05 00:17:06;;;;;;;9.70;8.70;;;;;;;;;;4984119;28;20094;-74
2022/09/05 00:19:39;;;;;;;9.95;8.95;;;;;;;;;;4984443;28;20032;-73
2022/09/05 00:22:18;;;;;;;10.23;8.75;;;;;;;;;;4964040;28;20468;-75
2022/09/05 00:25:02;;;;;;;9.32;8.30;;;;;;;;;;4979210;28;20235;-75
2022/09/05 00:27:39;;;;;;;9.43;8.50;;;;;;;;;;4981031;28;20067;-75
2022/09/05 00:30:12;;;;;;;8.60;7.68;;;;;;;;;;4998073;28;20038;-74
2022/09/05 00:32:38;;;;;;;;;;;;;;;;;;4981477;28;20049;-74
2022/09/05 00:35:05;;;;;;;11.07;7.80;;;;;;;;;;4978865;28;19963;-75
2022/09/05 00:37:42;;;;;;;9.98;8.48;;;;;;;;;;4978435;28;20440;-73
2022/09/05 00:40:26;;;;;;;13.50;10.10;;;;;;;;;;4982388;28;20433;-75
2022/09/05 00:43:05;;;;;;;13.95;11.57;;;;;;;;;;4978377;28;20022;-74
2022/09/05 00:45:47;;;;;;;12.88;11.55;;;;;;;;;;4994274;28;20031;-74
2022/09/05 00:48:31;;;;;;;12.80;11.50;;;;;;;;;;4978938;28;20036;-75
2022/09/05 00:51:01;;;;;;;16.88;11.55;;;;;;;;;;4980751;28;20074;-74
2022/09/05 00:53:36;;;;;;;13.55;12.13;;;;;;;;;;4977877;28;20027;-75
2022/09/05 00:56:02;;;;;;;16.08;13.05;;;;;;;;;;4978770;28;20030;-75
2022/09/05 00:58:55;;;;;;;15.50;13.05;;;;;;;;;;4978617;28;20023;-75
2022/09/05 01:01:21;;;;;;;16.25;13.60;;;;;;;;;;4947184;28;20054;-75
2022/09/05 01:04:08;;;;;;;16.13;13.30;;;;;;;;;;4978290;28;20045;-74
2022/09/05 01:06:47;;;;;;;14.95;13.07;;;;;;;;;;4978870;28;20039;-74
2022/09/05 01:09:19;;;;;;;18.73;12.60;;;;;;;;;;4978313;28;20030;-74
2022/09/05 01:11:45;;;;;;;14.38;12.88;;;;;;;;;;4981830;28;20110;-74
2022/09/05 01:14:27;;;;;;;16.05;12.88;;;;;;;;;;4977527;28;20022;-75
2022/09/05 01:16:53;;;;;;;14.70;11.68;;;;;;;;;;4987352;28;20030;-74
2022/09/05 01:19:30;;;;;;;12.60;10.85;;;;;;;;;;4989887;28;20026;-73
2022/09/05 01:22:15;;;;;;;10.55;8.80;;;;;;;;;;4985279;28;20022;-75
2022/09/05 01:24:53;;;;;;;8.27;7.47;;;;;;;;;;4976282;28;20034;-74
2022/09/05 01:27:34;;;;;;;8.00;7.20;;;;;;;;;;4977770;28;20118;-74
2022/09/05 01:30:11;;;;;;;9.55;7.47;;;;;;;;;;4988352;28;20034;-75
2022/09/05 01:33:01;;;;;;;8.23;7.22;;;;;;;;;;4987332;28;20084;-74
2022/09/05 01:35:27;;;;;;;9.63;7.80;;;;;;;;;;4910957;29;20371;-72
2022/09/05 01:38:19;;;;;;;9.15;7.55;;;;;;;;;;4917022;29;20032;-75
2022/09/05 01:40:53;;;;;;;8.63;6.82;;;;;;;;;;4892989;29;20048;-75
2022/09/05 01:43:25;;;;;;;9.02;6.90;;;;;;;;;;4894035;29;20036;-74
2022/09/05 01:45:56;;;;;;;7.95;6.70;;;;;;;;;;4898257;29;20037;-72
2022/09/05 01:48:32;;;;;;;8.32;6.70;;;;;;;;;;4897294;29;20563;-72
2022/09/05 01:51:16;;;;;;;6.95;6.25;;;;;;;;;;4897569;29;20593;-75
2022/09/05 01:53:48;;;;;;;9.38;6.97;;;;;;;;;;4895200;29;20052;-75
2022/09/05 01:56:35;;;;;;;10.60;6.95;;;;;;;;;;4896565;29;20043;-75
2022/09/05 01:59:01;;;;;;;8.55;7.13;;;;;;;;;;4897734;29;20068;-73
2022/09/05 02:01:36;;;;;;;8.85;6.80;;;;;;;;;;4891849;29;20164;-73
2022/09/05 02:04:02;;;;;;;10.93;7.30;;;;;;;;;;4880031;29;20041;-74
2022/09/05 02:06:41;;;;;;;8.75;7.65;;;;;;;;;;4893948;29;20048;-74
2022/09/05 02:09:16;;;;;;;10.50;8.13;;;;;;;;;;4881880;29;20037;-74
2022/09/05 02:11:52;;;;;;;10.75;8.02;;;;;;;;;;4901203;29;20147;-75
2022/09/05 02:14:36;;;;;;;9.68;8.02;;;;;;;;;;4940126;29;20039;-74
2022/09/05 02:17:09;;;;;;;13.55;8.95;;;;;;;;;;4941331;28;20043;-75
2022/09/05 02:19:42;;;;;;;13.05;8.60;;;;;;;;;;4964404;28;20031;-75
2022/09/05 02:22:11;;;;;;;12.33;8.83;;;;;;;;;;4962477;28;20031;-72
2022/09/05 02:24:41;;;;;;;12.20;8.98;;;;;;;;;;4959708;28;20100;-74
2022/09/05 02:27:26;;;;;;;9.57;8.57;;;;;;;;;;4970354;28;20482;-74
2022/09/05 02:30:09;;;;;;;9.85;8.82;;;;;;;;;;4966157;28;20042;-75
2022/09/05 02:32:35;;;;;;;9.63;8.43;;;;;;;;;;4966366;28;20020;-75
2022/09/05 02:35:04;;;;;;;11.25;8.27;;;;;;;;;;4948518;28;20054;-75
2022/09/05 02:37:37;;;;;;;10.68;7.75;;;;;;;;;;4964333;28;20482;-74
2022/09/05 02:40:22;;;;;;;9.20;8.20;;;;;;;;;;4960592;28;20035;-75
2022/09/05 02:42:54;;;;;;;9.30;8.32;;;;;;;;;;4968802;28;20098;-74
2022/09/05 02:45:23;;;;;;;9.38;7.75;;;;;;;;;;4965798;28;20485;-74
2022/09/05 02:48:02;;;;;;;7.97;7.18;;;;;;;;;;4974463;28;20046;-74
2022/09/05 02:50:54;;;;;;;8.70;7.25;;;;;;;;;;4965178;28;20027;-73
2022/09/05 02:53:21;;;;;;;9.02;8.13;;;;;;;;;;4952984;28;20035;-71
2022/09/05 02:56:07;;;;;;;9.07;8.00;;;;;;;;;;4960057;28;20030;-73
2022/09/05 02:58:36;;;;;;;9.43;7.80;;;;;;;;;;4960205;28;20027;-75
2022/09/05 03:01:21;;;;;;;10.82;7.97;;;;;;;;;;4972973;28;20048;-77
2022/09/05 03:04:06;;;;;;;8.98;8.05;;;;;;;;;;4988513;28;20453;-73
2022/09/05 03:06:43;;;;;;;9.68;7.78;;;;;;;;;;4984229;28;20031;-76
2022/09/05 03:09:09;;;;;;;9.77;7.15;;;;;;;;;;4999230;28;20439;-74
2022/09/05 03:11:41;;;;;;;9.52;7.90;;;;;;;;;;4980010;28;20380;-76
2022/09/05 03:14:24;;;;;;;9.52;8.45;;;;;;;;;;4968548;28;20041;-75
2022/09/05 03:16:57;;;;;;;9.23;8.07;;;;;;;;;;4984785;28;20045;-73
2022/09/05 03:19:39;;;;;;;8.68;7.72;;;;;;;;;;4993727;28;20025;-69
2022/09/05 03:22:24;;;;;;;9.15;8.25;;;;;;;;;;4993342;28;20045;-73
2022/09/05 03:25:02;;;;;;;8.90;8.00;;;;;;;;;;4986690;28;20029;-74
2022/09/05 03:27:29;;;;;;;11.88;9.00;;;;;;;;;;4996182;28;20033;-75
2022/09/05 03:30:14;;;;;;;10.95;8.30;;;;;;;;;;4998717;28;20018;-75
2022/09/05 03:32:58;;;;;;;11.63;8.52;;;;;;;;;;4991399;28;20510;-73
2022/09/05 03:35:43;;;;;;;9.85;8.40;;;;;;;;;;4986448;28;20049;-74
2022/09/05 03:38:15;;;;;;;11.05;8.55;;;;;;;;;;4989109;28;20046;-75
2022/09/05 03:40:56;;;;;;;10.65;9.10;;;;;;;;;;4988964;28;20038;-73
2022/09/05 03:43:28;;;;;;;10.75;9.65;;;;;;;;;;4992931;28;20029;-70
2022/09/05 03:45:57;;;;;;;11.50;9.88;;;;;;;;;;4978495;28;20026;-70
2022/09/05 03:48:41;;;;;;;11.55;10.38;;;;;;;;;;5006393;28;20446;-73
2022/09/05 03:51:13;;;;;;;11.35;10.18;;;;;;;;;;5000350;28;20081;-70
2022/09/05 03:53:57;;;;;;;11.38;10.05;;;;;;;;;;4999037;28;20101;-71
2022/09/05 03:56:30;;;;;;;12.50;10.65;;;;;;;;;;4987434;28;20034;-71
2022/09/05 03:59:22;;;;;;;12.77;11.00;;;;;;;;;;5004154;28;20023;-74
2022/09/05 04:01:51;;;;;;;13.00;10.80;;;;;;;;;;4958976;28;20057;-73
2022/09/05 04:04:24;;;;;;;14.27;10.75;;;;;;;;;;4991642;28;20027;-72
2022/09/05 04:06:56;;;;;;;13.25;10.90;;;;;;;;;;4985691;28;20121;-77
2022/09/05 04:09:24;;;;;;;11.80;10.60;;;;;;;;;;4999843;28;20481;-78
2022/09/05 04:11:53;;;;;;;19.63;11.48;;;;;;;;;;4996692;28;20041;-76
2022/09/05 04:14:23;;;;;;;14.20;10.73;;;;;;;;;;4993110;28;20034;-77
2022/09/05 04:16:51;;;;;;;12.20;10.93;;;;;;;;;;4984612;28;20027;-75
2022/09/05 04:19:26;;;;;;;15.38;11.35;;;;;;;;;;4982981;28;20403;-70
2022/09/05 04:22:18;;;;;;;14.82;10.90;;;;;;;;;;4984642;28;20018;-76
2022/09/05 04:24:50;;;;;;;11.90;10.60;;;;;;;;;;4977654;28;20098;-74
2022/09/05 04:27:25;;;;;;;13.95;10.80;;;;;;;;;;4989056;28;20515;-75
2022/09/05 04:29:59;;;;;;;13.27;10.75;;;;;;;;;;5005782;28;20038;-73
2022/09/05 04:32:25;;;;;;;;;;;;;;;;;;5006846;28;20045;-75
2022/09/05 04:35:03;;;;;;;16.45;10.48;;;;;;;;;;5001315;28;19906;-74
2022/09/05 04:37:47;;;;;;;19.55;11.50;;;;;;;;;;4990192;28;20025;-73
2022/09/05 04:40:32;;;;;;;13.68;10.40;;;;;;;;;;4988469;28;20421;-71
2022/09/05 04:43:00;;;;;;;14.75;10.57;;;;;;;;;;4987513;28;20037;-72
2022/09/05 04:45:27;;;;;;;16.00;10.35;;;;;;;;;;4993566;28;20030;-72
2022/09/05 04:47:54;;;;;;;11.68;9.70;;;;;;;;;;4979675;28;20094;-76
2022/09/05 04:50:22;;;;;;;13.95;10.02;;;;;;;;;;4995692;28;20104;-78
2022/09/05 04:52:48;;;;;;;14.13;10.23;;;;;;;;;;5005425;28;20030;-77
2022/09/05 04:55:16;;;;;;;16.65;10.82;;;;;;;;;;4986945;28;20102;-70
2022/09/05 04:57:48;;;;;;;13.73;9.95;;;;;;;;;;4993617;28;20042;-74
2022/09/05 05:00:24;;;;;;;15.05;10.10;;;;;;;;;;4987905;28;20041;-73
2022/09/05 05:03:01;;;;;;;13.82;10.65;;;;;;;;;;4989431;28;20018;-71
2022/09/05 05:05:46;;;;;;;11.70;9.77;;;;;;;;;;4985035;28;20037;-71
2022/09/05 05:08:16;;;;;;;16.88;10.50;;;;;;;;;;5003475;28;20030;-75
2022/09/05 05:10:46;;;;;;;13.65;10.00;;;;;;;;;;5002499;28;20034;-79
2022/09/05 05:13:16;;;;;;;16.45;10.45;;;;;;;;;;4996017;28;20029;-75
2022/09/05 05:15:47;;;;;;;12.45;10.48;;;;;;;;;;4991840;28;20496;-74
2022/09/05 05:18:13;;;;;;;16.58;10.30;;;;;;;;;;4984576;28;20027;-71
2022/09/05 05:20:49;;;;;;;13.90;9.43;;;;;;;;;;4983788;28;20084;-71
2022/09/05 05:23:16;;;;;;;12.10;8.80;;;;;;;;;;4995232;28;20057;-71
2022/09/05 05:26:03;;;;;;;13.30;8.20;;;;;;;;;;4994557;28;20026;-73
2022/09/05 05:28:29;;;;;;;10.10;7.63;;;;;;;;;;4978350;28;20492;-73
2022/09/05 05:30:55;;;;;;;9.35;7.28;;;;;;;;;;4979447;28;20034;-71
2022/09/05 05:33:30;;;;;;;9.40;7.03;;;;;;;;;;4989396;28;20026;-70
2022/09/05 05:35:57;;;;;;;10.10;6.78;;;;;;;;;;4970845;28;20118;-71
2022/09/05 05:38:25;;;;;;;11.93;6.35;;;;;;;;;;4993259;28;20031;-81
2022/09/05 05:41:14;;;;;;;13.23;7.25;;;;;;;;;;4989107;28;20028;-76
2022/09/05 05:43:42;;;;;;;11.73;6.03;;;;;;;;;;4989838;28;20027;-73
2022/09/05 05:46:11;;;;;;;9.00;6.60;;;;;;;;;;4964451;28;20125;-74
2022/09/05 05:48:39;;;;;;;11.25;6.60;;;;;;;;;;4983968;28;20080;-76
2022/09/05 05:51:41;;;;;;;7.30;5.80;;;;;;;;;;4994117;28;20048;-76
2022/09/05 05:54:21;;;;;;;7.32;5.90;;;;;;;;;;4921643;29;20146;-69
2022/09/05 05:56:59;;;;;;;8.35;6.22;;;;;;;;;;4933453;29;20107;-73
2022/09/05 05:59:37;;;;;;;8.80;5.82;;;;;;;;;;4931929;29;20043;-70
2022/09/05 06:02:03;;;;;;;12.30;8.05;;;;;;;;;;4930778;29;20055;-75
2022/09/05 06:04:41;;;;;;;13.02;6.80;;;;;;;;;;4934835;29;20129;-76
2022/09/05 06:07:25;;;;;;;9.40;6.07;;;;;;;;;;4937033;29;20035;-71
2022/09/05 06:09:52;;;;;;;6.90;5.35;;;;;;;;;;4931999;29;20630;-73
2022/09/05 06:12:37;;;;;;;8.18;5.53;;;;;;;;;;4932873;29;20155;-78
2022/09/05 06:15:24;;;;;;;6.63;5.10;;;;;;;;;;4921311;29;20477;-78
2022/09/05 06:18:08;;;;;;;6.38;5.00;;;;;;;;;;4935241;29;20038;-69
2022/09/05 06:20:46;;;;;;;8.38;4.68;;;;;;;;;;4934636;29;20027;-70
2022/09/05 06:23:12;;;;;;;5.50;4.93;;;;;;;;;;4934383;29;20433;-70
2022/09/05 06:25:56;;;;;;;22.77;6.22;;;;;;;;;;4933545;29;20110;-70
2022/09/05 06:28:54;;;;;;;8.68;4.72;;;;;;;;;;4959862;28;20046;-71
2022/09/05 06:31:27;;;;;;;8.13;4.82;;;;;;;;;;4915188;29;20088;-68
2022/09/05 06:34:06;;;;;;;6.23;5.23;;;;;;;;;;4920518;29;20038;-68
2022/09/05 06:36:51;;;;;;;5.35;4.82;;;;;;;;;;4917124;29;20083;-69
2022/09/05 06:39:23;;;;;;;13.30;5.30;;;;;;;;;;4925525;29;20032;-70
2022/09/05 06:41:49;;;;;;;;;;;;;;;;;;4918560;29;20041;-73
2022/09/05 06:44:15;;;;;;;8.65;5.30;;;;;;;;;;4920539;29;19971;-74
2022/09/05 06:46:45;;;;;;;8.65;5.40;;;;;;;;;;4919835;29;20130;-73
2022/09/05 06:49:20;;;;;;;8.13;5.40;;;;;;;;;;4909536;29;20035;-72
2022/09/05 06:51:52;;;;;;;11.15;6.78;;;;;;;;;;4923406;29;20027;-74
2022/09/05 06:54:30;;;;;;;10.38;5.63;;;;;;;;;;4919984;29;20028;-77
2022/09/05 06:57:13;;;;;;;9.00;6.15;;;;;;;;;;4901245;29;20032;-79
2022/09/05 06:59:45;;;;;;;9.25;5.30;;;;;;;;;;4920316;28;20032;-74
2022/09/05 07:02:19;;;;;;;9.98;5.78;;;;;;;;;;4917917;29;20113;-77
2022/09/05 07:05:04;;;;;;;11.60;6.03;;;;;;;;;;4915353;29;20040;-73
2022/09/05 07:07:44;;;;;;;10.18;6.50;;;;;;;;;;4978171;28;20042;-74
2022/09/05 07:10:17;;;;;;;31.60;27.08;;;;;;;;;;4984026;28;20034;-72
2022/09/05 07:12:51;;;;;;;12.63;7.45;;;;;;;;;;4985868;28;20026;-74
2022/09/05 07:15:43;;;;;;;10.82;6.32;;;;;;;;;;4979516;28;20477;-73
2022/09/05 07:18:26;;;;;;;11.90;6.13;;;;;;;;;;4982468;28;20042;-74
2022/09/05 07:20:59;;;;;;;9.17;6.10;;;;;;;;;;4992068;28;20102;-73
2022/09/05 07:23:26;;;;;;;8.85;6.45;;;;;;;;;;5009844;28;20287;-73
2022/09/05 07:25:54;;;;;;;9.45;6.35;;;;;;;;;;4986267;28;20022;-74
2022/09/05 07:28:21;;;;;;;9.00;6.78;;;;;;;;;;4993627;28;20104;-75
2022/09/05 07:30:49;;;;;;;11.63;7.00;;;;;;;;;;5004173;28;20031;-76
2022/09/05 07:33:24;;;;;;;8.07;7.25;;;;;;;;;;4980590;28;20039;-74
2022/09/05 07:35:51;;;;;;;10.82;6.60;;;;;;;;;;4978129;28;20476;-73
2022/09/05 07:38:19;;;;;;;13.70;6.32;;;;;;;;;;4977370;28;20050;-72
2022/09/05 07:41:17;;;;;;;11.93;6.00;;;;;;;;;;4978414;28;21388;-72
2022/09/05 07:43:45;;;;;;;8.35;6.15;;;;;;;;;;4904060;29;20055;-72
2022/09/05 07:46:22;;;;;;;10.13;5.47;;;;;;;;;;4899377;29;20475;-72
2022/09/05 07:48:52;;;;;;;11.82;9.35;;;;;;;;;;4905406;29;20040;-73
2022/09/05 07:51:23;;;;;;;8.27;5.57;;;;;;;;;;4894062;29;20027;-72
2022/09/05 07:53:52;;;;;;;9.45;5.45;;;;;;;;;;4908373;29;20043;-73
2022/09/05 07:56:41;;;;;;;7.72;5.32;;;;;;;;;;4910899;29;20062;-80
2022/09/05 07:59:09;;;;;;;13.13;8.32;;;;;;;;;;4912118;29;20190;-79
2022/09/05 08:01:37;;;;;;;11.70;6.20;;;;;;;;;;4906731;29;20057;-82
2022/09/05 08:04:03;;;;;;;9.30;5.00;;;;;;;;;;4905683;29;20040;-78
2022/09/05 08:06:29;;;;;;;14.75;5.97;;;;;;;;;;4908784;29;20033;-82
2022/09/05 08:08:58;;;;;;;12.13;6.32;;;;;;;;;;4906548;29;20075;-85
2022/09/05 08:11:25;;;;;;;13.60;6.13;;;;;;;;;;4906600;29;20044;-78
2022/09/05 08:14:01;;;;;;;9.23;5.50;;;;;;;;;;4906761;29;20063;-83
2022/09/05 08:16:27;;;;;;;11.13;6.78;;;;;;;;;;4907828;29;20040;-82
2022/09/05 08:19:19;;;;;;;9.40;5.57;;;;;;;;;;4906328;29;20029;-80
2022/09/05 08:21:48;;;;;;;12.10;6.07;;;;;;;;;;4943135;28;20074;-83
2022/09/05 08:24:20;;;;;;;11.27;6.50;;;;;;;;;;4976226;28;20087;-82
2022/09/05 08:27:02;;;;;;;7.68;5.47;;;;;;;;;;4971947;28;20106;-75
2022/09/05 08:29:31;;;;;;;11.35;6.65;;;;;;;;;;4980498;28;20027;-76
2022/09/05 08:32:16;;;;;;;12.10;6.78;;;;;;;;;;4976477;28;20729;-90
2022/09/05 08:34:59;;;;;;;9.20;6.30;;;;;;;;;;4985371;28;20056;-75
2022/09/05 08:37:25;;;;;;;11.40;7.07;;;;;;;;;;4968654;28;20030;-82
2022/09/05 08:39:52;;;;;;;8.18;6.45;;;;;;;;;;4986474;28;20027;-80
2022/09/05 08:42:37;;;;;;;11.35;6.40;;;;;;;;;;4988874;28;20110;-82
2022/09/05 08:45:12;;;;;;;12.18;5.50;;;;;;;;;;4964506;28;20023;-77
2022/09/05 08:47:44;;;;;;;9.68;6.30;;;;;;;;;;4990123;28;20118;-72
2022/09/05 08:50:16;;;;;;;7.13;6.18;;;;;;;;;;4990837;28;20018;-74
2022/09/05 08:53:00;;;;;;;11.07;6.38;;;;;;;;;;4995046;28;20026;-75
2022/09/05 08:55:29;;;;;;;11.88;7.18;;;;;;;;;;5001495;28;20041;-76
2022/09/05 08:57:58;;;;;;;9.43;7.05;;;;;;;;;;4992829;28;20508;-74
2022/09/05 09:00:27;;;;;;;12.07;7.47;;;;;;;;;;4990573;28;20065;-83
2022/09/05 09:03:05;;;;;;;9.02;6.82;;;;;;;;;;4993535;28;20025;-80
2022/09/05 09:05:40;;;;;;;12.18;8.10;;;;;;;;;;4982785;28;20031;-77
2022/09/05 09:08:16;;;;;;;10.32;7.53;;;;;;;;;;4965799;28;20125;-78
2022/09/05 09:10:54;;;;;;;9.07;7.20;;;;;;;;;;4992787;28;20081;-82
2022/09/05 09:13:41;;;;;;;9.57;7.70;;;;;;;;;;5005394;28;20026;-84
2022/09/05 09:16:07;;;;;;;10.18;7.82;;;;;;;;;;4987887;28;20023;-82
2022/09/05 09:18:43;;;;;;;10.15;8.02;;;;;;;;;;4988826;28;20037;-81
2022/09/05 09:21:27;;;;;;;11.38;7.55;;;;;;;;;;4994621;28;20515;-79
2022/09/05 09:24:02;;;;;;;9.15;7.95;;;;;;;;;;5000831;28;20069;-80
2022/09/05 09:26:32;;;;;;;10.95;8.10;;;;;;;;;;4987219;28;20085;-78
2022/09/05 09:29:02;;;;;;;9.82;8.82;;;;;;;;;;4974598;28;20098;-78
2022/09/05 09:31:47;;;;;;;10.23;8.93;;;;;;;;;;4964816;28;20042;-79
2022/09/05 09:34:21;;;;;;;13.77;9.85;;;;;;;;;;4996438;28;20491;-78
2022/09/05 09:37:13;;;;;;;15.10;9.20;;;;;;;;;;4986899;28;20559;-81
2022/09/05 09:39:46;;;;;;;11.38;8.75;;;;;;;;;;4991817;28;20090;-80
2022/09/05 09:42:30;;;;;;;9.80;8.67;;;;;;;;;;4972647;28;20133;-77
2022/09/05 09:45:15;;;;;;;9.32;8.32;;;;;;;;;;4986017;28;20022;-76
2022/09/05 09:48:00;;;;;;;15.13;9.45;;;;;;;;;;5004643;28;20038;-87
2022/09/05 09:50:52;;;;;;;9.05;8.07;;;;;;;;;;4968619;28;20121;-87
2022/09/05 09:53:24;;;;;;;9.48;7.97;;;;;;;;;;4962040;28;20049;-83
2022/09/05 09:55:56;;;;;;;9.27;8.10;;;;;;;;;;4995758;28;20034;-78
2022/09/05 09:58:22;;;;;;;7.88;7.07;;;;;;;;;;4990115;28;20030;-76
2022/09/05 10:01:07;;;;;;;13.30;8.30;;;;;;;;;;4970631;28;20049;-78
2022/09/05 10:03:33;;;;;;;9.63;7.25;;;;;;;;;;4973830;28;20392;-75
2022/09/05 10:06:08;;;;;;;9.75;6.75;;;;;;;;;;4984458;28;20037;-75
2022/09/05 10:08:52;;;;;;;9.63;6.82;;;;;;;;;;4980225;28;20090;-76
2022/09/05 10:11:39;;;;;;;10.32;6.20;;;;;;;;;;5014113;28;20026;-80
2022/09/05 10:14:44;;;;;;;9.82;6.35;;;;;;;;;;4985170;28;20049;-78
2022/09/05 10:17:19;;;;;;;7.53;5.63;;;;;;;;;;4915124;29;21428;-83
2022/09/05 10:19:52;;;;;;;12.52;6.43;;;;;;;;;;4921430;29;20498;-85
2022/09/05 10:22:29;;;;;;;7.18;6.38;;;;;;;;;;4916461;29;20036;-89
2022/09/05 10:25:01;;;;;;;7.97;6.32;;;;;;;;;;4914497;29;20435;-86
2022/09/05 10:27:30;;;;;;;9.07;7.07;;;;;;;;;;4914773;29;20151;-88
2022/09/05 10:30:15;;;;;;;8.73;6.60;;;;;;;;;;4915337;29;20028;-85
2022/09/05 10:32:43;;;;;;;9.77;6.97;;;;;;;;;;4911679;29;20059;-79
2022/09/05 10:35:09;;;;;;;8.55;6.88;;;;;;;;;;4912860;29;20036;-81
2022/09/05 10:37:40;;;;;;;8.25;6.75;;;;;;;;;;4920826;29;20036;-80
2022/09/05 10:40:09;;;;;;;8.45;7.38;;;;;;;;;;4915491;29;20036;-77
2022/09/05 10:42:57;;;;;;;12.05;7.10;;;;;;;;;;4898697;29;20032;-83
2022/09/05 10:45:45;;;;;;;9.88;7.50;;;;;;;;;;4915534;29;20096;-81
2022/09/05 10:48:16;;;;;;;7.20;6.50;;;;;;;;;;4952266;28;20050;-85
2022/09/05 10:50:43;;;;;;;7.90;6.45;;;;;;;;;;4974996;28;20019;-80
2022/09/05 10:53:28;;;;;;;7.88;6.85;;;;;;;;;;4984458;28;20042;-83
2022/09/05 10:56:03;;;;;;;13.00;7.03;;;;;;;;;;4984493;28;20026;-77
2022/09/05 10:58:32;;;;;;;7.80;7.00;;;;;;;;;;4974581;28;20023;-81
2022/09/05 11:01:05;;;;;;;10.77;8.18;;;;;;;;;;4949872;28;20051;-83
2022/09/05 11:03:44;;;;;;;11.97;7.30;;;;;;;;;;4955813;28;20382;-83
2022/09/05 11:06:13;;;;;;;12.07;7.32;;;;;;;;;;4957700;28;20027;-82
2022/09/05 11:08:58;;;;;;;8.40;6.50;;;;;;;;;;4959667;28;20122;-86
2022/09/05 11:11:26;;;;;;;9.90;6.75;;;;;;;;;;4949863;28;20499;-85
2022/09/05 11:14:02;;;;;;;8.55;6.13;;;;;;;;;;4960143;28;20042;-86
2022/09/05 11:16:52;;;;;;;7.40;5.70;;;;;;;;;;4962197;28;20038;-83
2022/09/05 11:19:21;;;;;;;11.00;6.68;;;;;;;;;;4963627;28;20513;-79
2022/09/05 11:21:54;;;;;;;9.43;6.30;;;;;;;;;;4966848;28;20065;-85
2022/09/05 11:24:23;;;;;;;8.85;6.55;;;;;;;;;;4963901;28;20389;-83
2022/09/05 11:27:08;;;;;;;6.97;5.60;;;;;;;;;;4966512;28;20023;-85
2022/09/05 11:29:41;;;;;;;7.88;6.07;;;;;;;;;;4954254;29;20068;-84
2022/09/05 11:32:23;;;;;;;8.55;5.60;;;;;;;;;;4955636;29;20055;-84
2022/09/05 11:35:01;;;;;;;9.70;5.90;;;;;;;;;;4938145;29;20452;-83
2022/09/05 11:37:27;;;;;;;9.38;6.25;;;;;;;;;;4968787;28;20027;-81
2022/09/05 11:40:26;;;;;;;9.55;6.53;;;;;;;;;;4938359;28;20027;-84
2022/09/05 11:43:07;;;;;;;7.78;6.05;;;;;;;;;;4893883;29;20056;-82
2022/09/05 11:45:33;;;;;;;9.13;6.50;;;;;;;;;;4885108;29;20041;-82
2022/09/05 11:48:18;;;;;;;7.93;6.60;;;;;;;;;;4893734;29;20047;-80
2022/09/05 11:50:49;;;;;;;11.43;7.22;;;;;;;;;;4894479;29;20040;-84
2022/09/05 11:53:33;;;;;;;9.85;6.28;;;;;;;;;;4882870;29;20041;-84
2022/09/05 11:56:20;;;;;;;12.70;6.75;;;;;;;;;;4895895;29;20039;-82
2022/09/05 11:58:47;;;;;;;8.13;6.22;;;;;;;;;;4821983;29;20066;-86
2022/09/05 12:01:32;;;;;;;8.65;6.25;;;;;;;;;;4824758;29;20043;-87
2022/09/05 12:04:16;;;;;;;8.25;5.60;;;;;;;;;;4840100;29;20117;-84
2022/09/05 12:06:43;;;;;;;7.60;6.30;;;;;;;;;;4842207;29;20068;-83
2022/09/05 12:09:27;;;;;;;8.98;5.90;;;;;;;;;;4842727;29;20042;-84
2022/09/05 12:12:08;;;;;;;6.85;6.13;;;;;;;;;;4842144;29;20535;-84
2022/09/05 12:14:53;;;;;;;6.38;5.60;;;;;;;;;;4839566;29;20125;-82
2022/09/05 12:17:22;;;;;;;6.57;5.78;;;;;;;;;;4830305;29;20049;-84
2022/09/05 12:20:04;;;;;;;6.32;5.45;;;;;;;;;;4908308;29;20111;-83
2022/09/05 12:22:35;;;;;;;12.30;7.55;;;;;;;;;;4916444;29;20032;-81
2022/09/05 12:25:23;;;;;;;7.97;6.60;;;;;;;;;;4917811;29;20036;-83
2022/09/05 12:27:54;;;;;;;8.30;6.25;;;;;;;;;;4918088;29;20043;-84
2022/09/05 12:30:27;;;;;;;8.07;5.90;;;;;;;;;;4917960;29;20513;-80
2022/09/05 12:32:55;;;;;;;;;;;;;;;;;;4913839;29;20545;-83
2022/09/05 12:35:30;;;;;;;7.07;5.82;;;;;;;;;;4928591;29;19910;-83
2022/09/05 12:37:56;;;;;;;8.60;6.40;;;;;;;;;;4958189;28;20045;-84
2022/09/05 12:40:32;;;;;;;9.35;6.38;;;;;;;;;;4958151;28;20156;-84
2022/09/05 12:43:02;;;;;;;16.35;7.38;;;;;;;;;;4961761;28;20410;-82
2022/09/05 12:45:31;;;;;;;7.18;6.43;;;;;;;;;;4966563;28;20083;-84
2022/09/05 12:48:16;;;;;;;8.10;6.20;;;;;;;;;;4957612;28;20031;-80
2022/09/05 12:50:42;;;;;;;10.00;6.55;;;;;;;;;;4957766;28;20037;-84
2022/09/05 12:53:13;;;;;;;7.07;6.38;;;;;;;;;;4958380;28;20027;-82
2022/09/05 12:55:44;;;;;;;10.85;6.75;;;;;;;;;;4974616;28;20459;-83
2022/09/05 12:58:19;;;;;;;9.43;6.90;;;;;;;;;;4959816;28;20023;-84
2022/09/05 13:00:46;;;;;;;7.45;6.65;;;;;;;;;;4972251;28;20165;-82
2022/09/05 13:03:15;;;;;;;7.22;5.60;;;;;;;;;;4983706;28;20521;-83
2022/09/05 13:05:51;;;;;;;9.75;5.95;;;;;;;;;;4980850;28;20038;-81
2022/09/05 13:08:22;;;;;;;8.73;6.60;;;;;;;;;;4961040;28;20062;-84
2022/09/05 13:10:50;;;;;;;8.27;6.57;;;;;;;;;;4984689;28;20027;-76
2022/09/05 13:13:35;;;;;;;9.38;6.93;;;;;;;;;;4987623;28;20040;-77
2022/09/05 13:16:02;;;;;;;8.88;5.82;;;;;;;;;;4986633;28;20170;-78
2022/09/05 13:18:40;;;;;;;7.60;5.72;;;;;;;;;;4987838;28;20081;-74
2022/09/05 13:21:10;;;;;;;9.25;6.70;;;;;;;;;;4961247;28;20078;-72
2022/09/05 13:23:40;;;;;;;9.98;7.30;;;;;;;;;;4989565;28;20038;-78
2022/09/05 13:26:32;;;;;;;13.23;7.50;;;;;;;;;;4989852;28;20027;-74
2022/09/05 13:29:01;;;;;;;13.45;7.45;;;;;;;;;;4965983;28;20130;-74
2022/09/05 13:31:39;;;;;;;11.05;7.28;;;;;;;;;;4987782;28;20036;-78
2022/09/05 13:34:10;;;;;;;8.77;6.47;;;;;;;;;;5001567;28;20031;-72
2022/09/05 13:36:41;;;;;;;9.32;6.30;;;;;;;;;;4994316;28;20022;-74
2022/09/05 13:39:10;;;;;;;12.88;6.82;;;;;;;;;;4984698;28;20027;-72
2022/09/05 13:41:41;;;;;;;8.43;6.00;;;;;;;;;;4978615;28;20449;-75
2022/09/05 13:44:12;;;;;;;8.95;6.03;;;;;;;;;;4979715;28;20477;-71
2022/09/05 13:46:52;;;;;;;6.72;5.97;;;;;;;;;;4988388;28;20045;-75
2022/09/05 13:49:24;;;;;;;7.55;5.68;;;;;;;;;;4979733;28;20421;-72
2022/09/05 13:51:52;;;;;;;9.15;6.10;;;;;;;;;;5001305;28;20022;-76
2022/09/05 13:54:36;;;;;;;6.60;5.57;;;;;;;;;;4996672;28;20137;-70
2022/09/05 13:57:15;;;;;;;7.15;6.13;;;;;;;;;;4985513;28;20026;-74
2022/09/05 13:59:42;;;;;;;6.35;5.43;;;;;;;;;;4981207;28;20030;-70
2022/09/05 14:02:25;;;;;;;9.63;6.50;;;;;;;;;;4985320;28;20050;-70
2022/09/05 14:05:01;;;;;;;11.25;5.70;;;;;;;;;;4989469;28;20022;-73
2022/09/05 14:07:33;;;;;;;10.27;7.00;;;;;;;;;;4997543;28;20025;-74
2022/09/05 14:10:09;;;;;;;11.13;6.65;;;;;;;;;;4995263;28;20042;-73
2022/09/05 14:12:43;;;;;;;7.88;6.28;;;;;;;;;;4987231;28;20021;-74
2022/09/05 14:15:28;;;;;;;9.45;6.18;;;;;;;;;;4983220;28;20052;-71
2022/09/05 14:18:03;;;;;;;10.43;5.90;;;;;;;;;;4985296;28;20036;-75
2022/09/05 14:23:20;;;;;;;9.18;5.65;;;;;;;;;;4981328;28;20080;-79
2022/09/05 14:25:49;;;;;;;7.03;5.47;;;;;;;;;;4974426;28;20102;-74
2022/09/05 14:28:24;;;;;;;8.18;5.50;;;;;;;;;;4976385;28;20042;-72
2022/09/05 14:30:52;;;;;;;7.80;6.00;;;;;;;;;;4975013;28;20085;-73
2022/09/05 14:33:21;;;;;;;13.15;5.80;;;;;;;;;;4980511;28;20172;-72
2022/09/05 14:35:47;;;;;;;8.25;5.70;;;;;;;;;;4981376;28;20029;-74
2022/09/05 14:38:18;;;;;;;9.93;5.50;;;;;;;;;;4984574;28;20023;-74
2022/09/05 14:41:03;;;;;;;11.05;6.10;;;;;;;;;;4983107;28;20022;-73
2022/09/05 14:43:47;;;;;;;6.65;5.95;;;;;;;;;;4982748;28;20042;-73
2022/09/05 14:46:28;;;;;;;7.63;5.50;;;;;;;;;;4987863;28;20025;-74
2022/09/05 14:49:00;;;;;;;10.13;6.10;;;;;;;;;;4982797;28;20501;-73
2022/09/05 14:51:36;;;;;;;8.98;5.75;;;;;;;;;;4995436;28;20029;-74
2022/09/05 14:54:14;;;;;;;7.00;5.70;;;;;;;;;;4998393;28;20109;-73
2022/09/05 14:56:45;;;;;;;7.75;6.38;;;;;;;;;;4976517;28;20049;-73
2022/09/05 14:59:17;;;;;;;7.40;5.82;;;;;;;;;;4989475;28;20040;-73
2022/09/05 15:01:47;;;;;;;9.77;5.97;;;;;;;;;;4995682;28;20174;-72
2022/09/05 15:04:17;;;;;;;13.77;6.63;;;;;;;;;;4993613;28;20437;-78
2022/09/05 15:06:57;;;;;;;8.27;6.32;;;;;;;;;;4986078;28;20026;-74
2022/09/05 15:09:25;;;;;;;6.50;5.80;;;;;;;;;;4996297;28;20453;-74
2022/09/05 15:11:54;;;;;;;9.07;6.00;;;;;;;;;;4973194;28;20025;-87
2022/09/05 15:14:26;;;;;;;7.00;5.65;;;;;;;;;;4986798;28;20060;-74
2022/09/05 15:16:56;;;;;;;10.57;6.55;;;;;;;;;;4994888;28;20023;-73
2022/09/05 15:19:45;;;;;;;8.38;5.88;;;;;;;;;;4973112;28;20437;-73
2022/09/05 15:22:38;;;;;;;7.20;5.70;;;;;;;;;;4977478;28;20388;-72
2022/09/05 15:25:04;;;;;;;8.43;5.68;;;;;;;;;;4977486;28;20050;-78
2022/09/05 15:27:30;;;;;;;11.25;6.10;;;;;;;;;;4973955;28;20048;-74